Latest Weather Observations for Fawkner Beacon

IDV60901

Issued at 7:11 pm EST Monday 20 May 2019 (issued every 10 minutes, with the page automatically refreshed every 10 minutes)

About weather observations | Map of Melbourne area stations | Latest observations for Melbourne area | Other Formats
Station Details ID: 086376 Name: FAWKNER BEACON Lat: -37.95 Lon: 144.93 Height: 17.0 m
Data from the previous 72 hours. | See also: Recent months at Fawkner Beacon
Date/Time
EST
Temp
°C
App
Temp
°C
Dew
Point
°C
Rel
Hum
%
Delta-T
°C
Wind Press
QNH
hPa
Press
MSL
hPa
Rain since
9am
mm
Dir  Spd
km/h
Gust
km/h
Spd
kts
Gust
kts
20/07:00pm - - - - - N 30 39 16 21 - - -
20/06:30pm - - - - - N 37 43 20 23 - - -
20/06:00pm - - - - - N 35 41 19 22 - - -
20/05:30pm - - - - - N 41 46 22 25 - - -
20/05:00pm - - - - - N 33 41 18 22 - - -
20/04:30pm - - - - - N 35 43 19 23 - - -
20/04:00pm - - - - - N 41 50 22 27 - - -
20/03:30pm - - - - - N 39 48 21 26 - - -
20/03:00pm - - - - - NNW 44 54 24 29 - - -
20/02:30pm - - - - - NNW 39 46 21 25 - - -
20/02:00pm - - - - - NNW 43 50 23 27 - - -
20/01:30pm - - - - - N 43 50 23 27 - - -
20/01:00pm - - - - - N 46 54 25 29 - - -
20/12:30pm - - - - - N 30 43 16 23 - - -
20/12:00pm - - - - - N 43 52 23 28 - - -
20/11:30am - - - - - N 44 54 24 29 - - -
20/11:00am - - - - - N 43 59 23 32 - - -
20/10:30am - - - - - N 56 65 30 35 - - -
20/10:00am - - - - - N 43 54 23 29 - - -
20/09:30am - - - - - N 39 46 21 25 - - -
20/09:00am - - - - - N 35 46 19 25 - - -
20/08:30am - - - - - NNW 22 30 12 16 - - -
20/08:00am - - - - - N 28 32 15 17 - - -
20/07:30am - - - - - N 20 32 11 17 - - -
20/07:00am - - - - - NNE 20 24 11 13 - - -
20/06:30am - - - - - N 19 22 10 12 - - -
20/06:00am - - - - - N 30 35 16 19 - - -
20/05:30am - - - - - N 15 20 8 11 - - -
20/05:00am - - - - - N 15 17 8 9 - - -
20/04:30am - - - - - N 17 20 9 11 - - -
20/04:00am - - - - - N 13 17 7 9 - - -
20/03:30am - - - - - N 19 22 10 12 - - -
20/03:00am - - - - - N 24 26 13 14 - - -
20/02:30am - - - - - N 24 28 13 15 - - -
20/02:00am - - - - - N 20 26 11 14 - - -
20/01:30am - - - - - N 15 20 8 11 - - -
20/01:00am - - - - - N 15 17 8 9 - - -
20/12:30am - - - - - N 20 24 11 13 - - -
20/12:00am - - - - - N 26 28 14 15 - - -
 
Date/Time
EST
Temp
°C
App
Temp
°C
Dew
Point
°C
Rel
Hum
%
Delta-T
°C
Wind Press
QNH
hPa
Press
MSL
hPa
Rain since
9am
mm
Dir  Spd
km/h
Gust
km/h
Spd
kts
Gust
kts
19/11:30pm - - - - - N 24 28 13 15 - - -
19/11:00pm - - - - - N 24 28 13 15 - - -
19/10:30pm - - - - - N 22 24 12 13 - - -
19/10:00pm - - - - - NNE 20 24 11 13 - - -
19/09:30pm - - - - - NNE 24 26 13 14 - - -
19/09:00pm - - - - - N 24 30 13 16 - - -
19/08:30pm - - - - - NNE 24 28 13 15 - - -
19/08:00pm - - - - - N 22 28 12 15 - - -
19/07:30pm - - - - - NNE 22 24 12 13 - - -
19/07:00pm - - - - - N 17 20 9 11 - - -
19/06:30pm - - - - - N 20 24 11 13 - - -
19/06:00pm - - - - - N 20 22 11 12 - - -
19/05:30pm - - - - - N 17 20 9 11 - - -
19/05:00pm - - - - - N 20 24 11 13 - - -
19/04:30pm - - - - - N 28 32 15 17 - - -
19/04:00pm - - - - - N 26 30 14 16 - - -
19/03:30pm - - - - - N 32 39 17 21 - - -
19/03:00pm - - - - - N 32 35 17 19 - - -
19/02:30pm - - - - - N 28 32 15 17 - - -
19/02:00pm - - - - - N 30 33 16 18 - - -
19/01:30pm - - - - - N 32 39 17 21 - - -
19/01:00pm - - - - - N 32 35 17 19 - - -
19/12:30pm - - - - - N 24 28 13 15 - - -
19/12:00pm - - - - - N 22 28 12 15 - - -
19/11:30am - - - - - N 15 20 8 11 - - -
19/11:00am - - - - - N 22 26 12 14 - - -
19/10:30am - - - - - N 19 22 10 12 - - -
19/10:00am - - - - - NNE 13 17 7 9 - - -
19/09:30am - - - - - NNE 13 15 7 8 - - -
19/09:00am - - - - - NE 13 15 7 8 - - -
19/08:30am - - - - - NNE 17 20 9 11 - - -
19/08:00am - - - - - NNE 17 20 9 11 - - -
19/07:30am - - - - - NNE 17 24 9 13 - - -
19/07:00am - - - - - NNE 20 24 11 13 - - -
19/06:30am - - - - - NNE 20 24 11 13 - - -
19/06:00am - - - - - NNE 22 26 12 14 - - -
19/05:30am - - - - - NNE 20 24 11 13 - - -
19/05:00am - - - - - NE 17 22 9 12 - - -
19/04:30am - - - - - NNE 22 24 12 13 - - -
19/04:00am - - - - - NNE 17 22 9 12 - - -
19/03:30am - - - - - NNE 13 15 7 8 - - -
19/03:00am - - - - - N 13 15 7 8 - - -
19/02:30am - - - - - NNE 13 15 7 8 - - -
19/02:00am - - - - - N 13 15 7 8 - - -
19/01:30am - - - - - NNE 9 11 5 6 - - -
19/01:00am - - - - - N 9 13 5 7 - - -
19/12:30am - - - - - NNW 11 13 6 7 - - -
19/12:00am - - - - - NNW 13 15 7 8 - - -
 
Date/Time
EST
Temp
°C
App
Temp
°C
Dew
Point
°C
Rel
Hum
%
Delta-T
°C
Wind Press
QNH
hPa
Press
MSL
hPa
Rain since
9am
mm
Dir  Spd
km/h
Gust
km/h
Spd
kts
Gust
kts
18/11:30pm - - - - - NNW 15 17 8 9 - - -
18/11:00pm - - - - - NNW 11 13 6 7 - - -
18/10:30pm - - - - - NNW 11 13 6 7 - - -
18/10:00pm - - - - - NNW 20 24 11 13 - - -
18/09:30pm - - - - - N 15 17 8 9 - - -
18/09:00pm - - - - - N 11 13 6 7 - - -
18/08:30pm - - - - - ENE 15 17 8 9 - - -
18/08:00pm - - - - - E 19 24 10 13 - - -
18/07:30pm - - - - - ESE 20 24 11 13 - - -
18/07:00pm - - - - - ESE 20 24 11 13 - - -
18/06:30pm - - - - - ESE 24 28 13 15 - - -
18/06:00pm - - - - - SE 28 33 15 18 - - -
18/05:30pm - - - - - SE 24 28 13 15 - - -
18/05:00pm - - - - - SSE 24 28 13 15 - - -
18/04:30pm - - - - - SSE 22 26 12 14 - - -
18/04:00pm - - - - - SSE 22 26 12 14 - - -
18/03:30pm - - - - - SE 15 17 8 9 - - -
18/03:00pm - - - - - SE 20 22 11 12 - - -
18/02:30pm - - - - - SE 17 22 9 12 - - -
18/02:00pm - - - - - SE 17 20 9 11 - - -
18/01:30pm - - - - - SE 13 15 7 8 - - -
18/01:00pm - - - - - SE 11 13 6 7 - - -
18/12:30pm - - - - - SSW 6 9 3 5 - - -
18/12:00pm - - - - - WNW 6 7 3 4 - - -
18/11:30am - - - - - NNW 6 7 3 4 - - -
18/11:00am - - - - - NNE 6 7 3 4 - - -
18/10:30am - - - - - N 7 9 4 5 - - -
18/10:00am - - - - - N 7 11 4 6 - - -
18/09:30am - - - - - N 13 15 7 8 - - -
18/09:00am - - - - - N 11 13 6 7 - - -
18/08:30am - - - - - N 11 13 6 7 - - -
18/08:00am - - - - - NNW 11 13 6 7 - - -
18/07:30am - - - - - N 11 15 6 8 - - -
18/07:00am - - - - - N 13 17 7 9 - - -
18/06:30am - - - - - N 15 17 8 9 - - -
18/06:00am - - - - - N 13 17 7 9 - - -
18/05:30am - - - - - N 11 15 6 8 - - -
18/05:00am - - - - - N 11 15 6 8 - - -
18/04:30am - - - - - NNW 9 11 5 6 - - -
18/04:00am - - - - - N 9 13 5 7 - - -
18/03:30am - - - - - N 11 13 6 7 - - -
18/03:00am - - - - - NNE 11 13 6 7 - - -
18/02:30am - - - - - N 11 13 6 7 - - -
18/02:00am - - - - - N 9 11 5 6 - - -
18/01:30am - - - - - N 7 11 4 6 - - -
18/01:00am - - - - - N 9 11 5 6 - - -
18/12:30am - - - - - N 11 13 6 7 - - -
18/12:00am - - - - - N 9 11 5 6 - - -
 
Date/Time
EST
Temp
°C
App
Temp
°C
Dew
Point
°C
Rel
Hum
%
Delta-T
°C
Wind Press
QNH
hPa
Press
MSL
hPa
Rain since
9am
mm
Dir  Spd
km/h
Gust
km/h
Spd
kts
Gust
kts
17/11:30pm - - - - - NNW 11 13 6 7 - - -
17/11:00pm - - - - - N 7 9 4 5 - - -
17/10:30pm - - - - - NNE 6 7 3 4 - - -
17/10:00pm - - - - - ENE 7 9 4 5 - - -
17/09:30pm - - - - - E 9 11 5 6 - - -
17/09:00pm - - - - - E 9 13 5 7 - - -
17/08:30pm - - - - - E 9 13 5 7 - - -
17/08:00pm - - - - - E 11 13 6 7 - - -
17/07:30pm - - - - - E 13 17 7 9 - - -

Latest Capital City Observations: Canberra | Sydney | Melbourne | Brisbane | Adelaide | Perth | Hobart | Darwin

Other formats

Comma delimited format used in spreadsheet applications
http://www.bom.gov.au/fwo/IDV60901/IDV60901.95872.axf

JavaScript Object Notation format (JSON) in row-major order
http://www.bom.gov.au/fwo/IDV60901/IDV60901.95872.json

Data quality

Most of these data are generated automatically and are frequently updated. Quality checks on data are not normally performed. It is possible for incorrect values to appear. Refer to information at About Latest Weather Observations and please check the disclaimer before using these data.